Time;durP1;ratioP1;P1;durP2;ratioP2;P2;SDS_P1;SDS_P2;PMS_P1;PMS_P2;Temp;Humidity;BMP_temperature;BMP_pressure;BME280_temperature;BME280_humidity;BME280_pressure;Samples;Min_cycle;Max_cycle;Signal;HPM_P1;HPM_P2
2023/05/09 00:01:24;;;;;;;11.80;4.10;;;;;;;10.10;36.02;101734.29;104903;1255;66333;-50
2023/05/09 00:03:51;;;;;;;10.30;4.00;;;;;;;10.08;36.21;101732.63;104721;1254;59627;-53
2023/05/09 00:06:18;;;;;;;8.60;3.90;;;;;;;10.07;36.20;101733.94;104836;1254;59682;-51
2023/05/09 00:08:45;;;;;;;8.80;4.30;;;;;;;10.06;36.39;101734.33;104816;1254;65455;-55
2023/05/09 00:11:12;;;;;;;8.90;4.60;;;;;;;10.04;36.08;101732.34;104758;1254;63606;-52
2023/05/09 00:13:40;;;;;;;10.30;4.20;;;;;;;10.01;35.98;101731.06;104713;1259;65031;-51
2023/05/09 00:16:08;;;;;;;9.80;4.80;;;;;;;9.99;36.01;101735.60;107095;1254;59372;-53
2023/05/09 00:18:36;;;;;;;12.30;4.60;;;;;;;9.97;36.30;101736.22;105196;1259;61683;-52
2023/05/09 00:21:03;;;;;;;9.60;4.40;;;;;;;9.95;36.09;101735.28;104767;1255;66501;-52
2023/05/09 00:23:30;;;;;;;7.70;4.20;;;;;;;9.91;36.23;101735.52;104827;1258;64618;-52
2023/05/09 00:25:58;;;;;;;8.40;4.40;;;;;;;9.88;36.81;101734.79;104755;1260;64966;-52
2023/05/09 00:28:25;;;;;;;9.10;4.40;;;;;;;9.85;36.81;101738.27;104715;1254;60536;-53
2023/05/09 00:30:52;;;;;;;7.30;4.10;;;;;;;9.83;36.98;101737.35;106658;1254;60379;-51
2023/05/09 00:33:19;;;;;;;9.50;4.30;;;;;;;9.81;36.89;101738.34;104830;1259;67329;-52
2023/05/09 00:35:46;;;;;;;5.70;2.10;;;;;;;9.79;37.01;101740.00;104770;1259;64160;-53
2023/05/09 00:38:13;;;;;;;9.50;4.20;;;;;;;9.78;37.37;101740.42;104455;1259;66297;-52
2023/05/09 00:40:40;;;;;;;10.10;4.30;;;;;;;9.75;37.02;101738.99;104630;1255;60323;-52
2023/05/09 00:43:07;;;;;;;9.70;4.60;;;;;;;9.73;37.04;101741.27;104483;1259;61170;-52
2023/05/09 00:45:34;;;;;;;12.80;4.40;;;;;;;9.70;37.10;101734.20;106150;1259;67317;-55
2023/05/09 00:48:01;;;;;;;7.20;4.30;;;;;;;9.69;37.45;101738.48;104395;1253;63820;-54
2023/05/09 00:50:30;;;;;;;8.20;4.70;;;;;;;9.66;37.26;101735.08;104476;1262;64639;-53
2023/05/09 00:52:57;;;;;;;8.30;4.40;;;;;;;9.64;37.26;101736.47;105821;1254;60565;-53
2023/05/09 00:55:24;;;;;;;8.70;3.70;;;;;;;9.61;37.19;101741.70;107361;1256;59774;-54
2023/05/09 00:57:51;;;;;;;11.60;3.90;;;;;;;9.58;37.76;101739.44;107282;1256;67158;-52
2023/05/09 01:00:18;;;;;;;8.00;4.40;;;;;;;9.57;37.91;101742.27;105043;1261;63630;-52
2023/05/09 01:02:46;;;;;;;9.60;4.50;;;;;;;9.56;38.03;101739.86;105210;1254;65411;-52
2023/05/09 01:05:13;;;;;;;12.90;4.60;;;;;;;9.54;37.76;101738.97;105398;1254;60585;-52
2023/05/09 01:07:47;;;;;;;10.70;4.90;;;;;;;9.52;37.95;101741.00;105326;1259;60517;-53
2023/05/09 01:10:31;;;;;;;8.80;4.10;;;;;;;9.51;38.16;101742.08;105592;1258;67323;-53
2023/05/09 01:13:03;;;;;;;8.00;4.10;;;;;;;9.51;37.97;101742.27;105374;1259;62471;-53
2023/05/09 01:15:45;;;;;;;7.80;3.90;;;;;;;9.49;37.82;101739.52;106621;1254;66214;-52
2023/05/09 01:18:15;;;;;;;12.50;5.10;;;;;;;9.48;37.67;101736.96;105702;1258;60581;-52
2023/05/09 01:20:45;;;;;;;9.00;4.20;;;;;;;9.47;37.86;101738.98;108639;1253;59260;-54
2023/05/09 01:23:43;;;;;;;7.30;4.40;;;;;;;9.46;37.88;101741.26;105633;1254;66477;-52
2023/05/09 01:26:24;;;;;;;12.90;4.00;;;;;;;9.45;37.98;101743.09;105291;1255;63563;-54
2023/05/09 01:29:26;;;;;;;6.70;3.80;;;;;;;9.43;38.04;101741.77;106973;1254;65283;-51
2023/05/09 01:31:54;;;;;;;10.60;4.70;;;;;;;9.42;38.06;101741.14;105427;1254;60536;-52
2023/05/09 01:34:21;;;;;;;11.70;4.70;;;;;;;9.40;38.15;101741.58;105156;1252;61664;-53
2023/05/09 01:36:48;;;;;;;9.80;4.40;;;;;;;9.39;37.93;101743.57;104943;1254;66286;-53
2023/05/09 01:39:16;;;;;;;8.20;4.50;;;;;;;9.37;37.93;101745.79;105872;1254;63814;-53
2023/05/09 01:41:43;;;;;;;8.40;4.10;;;;;;;9.35;38.13;101742.60;104835;1254;66188;-53
2023/05/09 01:44:10;;;;;;;9.90;4.60;;;;;;;9.32;38.31;101740.63;104713;1257;60791;-53
2023/05/09 01:46:38;;;;;;;8.50;4.70;;;;;;;9.30;38.38;101740.73;105834;1254;60553;-53
2023/05/09 01:49:06;;;;;;;10.00;4.20;;;;;;;9.27;38.26;101742.64;106129;1254;65853;-52
2023/05/09 01:51:34;;;;;;;9.10;4.50;;;;;;;9.24;38.58;101744.71;105352;1254;63646;-53
2023/05/09 01:54:01;;;;;;;6.30;1.90;;;;;;;9.23;38.46;101743.23;105275;1257;66042;-52
2023/05/09 01:56:28;;;;;;;9.50;3.80;;;;;;;9.20;38.44;101743.50;105113;1253;60565;-52
2023/05/09 01:58:55;;;;;;;9.90;4.10;;;;;;;9.16;38.43;101745.48;104540;1262;60533;-52
2023/05/09 02:01:22;;;;;;;9.40;4.80;;;;;;;9.14;38.58;101742.79;104650;1259;66238;-52
2023/05/09 02:03:51;;;;;;;8.00;4.10;;;;;;;9.13;38.58;101746.00;105737;1253;64273;-52
2023/05/09 02:06:19;;;;;;;4.60;1.40;;;;;;;9.12;38.73;101745.36;108874;1254;64847;-52
2023/05/09 02:08:46;;;;;;;8.40;4.30;;;;;;;9.10;38.70;101745.79;108938;1257;59147;-52
2023/05/09 02:11:13;;;;;;;8.60;4.60;;;;;;;9.09;38.51;101747.42;108979;1258;59281;-52
2023/05/09 02:13:40;;;;;;;9.70;3.70;;;;;;;9.09;38.53;101751.60;108951;1253;67575;-52
2023/05/09 02:16:09;;;;;;;5.30;1.90;;;;;;;9.08;38.86;101754.27;108872;1252;63788;-53
2023/05/09 02:18:36;;;;;;;8.10;4.40;;;;;;;9.08;38.99;101754.10;108742;1253;68976;-52
2023/05/09 02:21:03;;;;;;;9.70;4.60;;;;;;;9.10;38.66;101752.30;109011;1254;58345;-52
2023/05/09 02:23:30;;;;;;;10.30;4.30;;;;;;;9.10;38.65;101752.95;109042;1253;58486;-52
2023/05/09 02:25:56;;;;;;;9.20;4.50;;;;;;;9.12;38.58;101752.00;108997;1254;66223;-53
2023/05/09 02:28:24;;;;;;;9.80;4.70;;;;;;;9.11;38.71;101753.79;107274;1258;62769;-52
2023/05/09 02:30:51;;;;;;;8.70;4.50;;;;;;;9.09;38.70;101755.83;104971;1254;65639;-52
2023/05/09 02:33:18;;;;;;;7.90;4.10;;;;;;;9.07;38.77;101754.69;104891;1259;60376;-52
2023/05/09 02:35:45;;;;;;;7.10;4.10;;;;;;;9.06;38.86;101753.85;104862;1254;60470;-52
2023/05/09 02:38:12;;;;;;;10.10;4.30;;;;;;;9.02;38.79;101756.20;104696;1260;67307;-53
2023/05/09 02:40:40;;;;;;;7.80;4.30;;;;;;;8.96;39.01;101756.48;104932;1253;63534;-53
2023/05/09 02:43:07;;;;;;;7.70;4.40;;;;;;;8.91;39.35;101757.25;107525;1254;66149;-53
2023/05/09 02:45:34;;;;;;;5.20;2.00;;;;;;;8.87;39.41;101755.90;106336;1253;60327;-53
2023/05/09 02:48:01;;;;;;;8.90;4.40;;;;;;;8.83;39.51;101758.05;107616;1252;60375;-53
2023/05/09 02:50:29;;;;;;;8.20;4.00;;;;;;;8.80;39.47;101757.99;104888;1259;66263;-53
2023/05/09 02:52:56;;;;;;;8.20;3.80;;;;;;;8.79;39.79;101757.02;106337;1254;62712;-52
2023/05/09 02:55:23;;;;;;;9.70;3.70;;;;;;;8.77;39.94;101756.94;104690;1254;66190;-51
2023/05/09 02:57:50;;;;;;;9.30;4.60;;;;;;;8.75;39.98;101762.81;105250;1254;60664;-53
2023/05/09 03:00:32;;;;;;;8.70;4.60;;;;;;;8.72;39.99;101762.94;105393;1258;59346;-52
2023/05/09 03:02:59;;;;;;;6.50;2.10;;;;;;;8.70;39.98;101763.92;104741;1255;66030;-52
2023/05/09 03:05:27;;;;;;;9.60;4.30;;;;;;;8.67;39.86;101764.23;104811;1257;64430;-52
2023/05/09 03:07:54;;;;;;;7.80;4.20;;;;;;;8.67;40.02;101764.11;105735;1257;66020;-54
2023/05/09 03:10:21;;;;;;;8.00;3.60;;;;;;;8.67;40.18;101762.85;104772;1254;60536;-52
2023/05/09 03:12:48;;;;;;;7.60;2.30;;;;;;;8.68;40.25;101764.21;104746;1254;60508;-53
2023/05/09 03:15:15;;;;;;;8.70;4.00;;;;;;;8.70;40.62;101767.59;106547;1257;66252;-53
2023/05/09 03:17:44;;;;;;;8.40;3.70;;;;;;;8.73;40.27;101769.92;105911;1259;62801;-53
2023/05/09 03:20:11;;;;;;;8.20;4.60;;;;;;;8.76;40.15;101772.55;106905;1257;64945;-53
2023/05/09 03:22:38;;;;;;;11.60;4.00;;;;;;;8.81;40.03;101771.79;104791;1258;62104;-52
2023/05/09 03:25:07;;;;;;;7.70;3.50;;;;;;;8.85;40.10;101776.33;104761;1262;60431;-52
2023/05/09 03:27:34;;;;;;;5.40;1.80;;;;;;;8.88;40.21;101776.69;104713;1254;66415;-52
2023/05/09 03:30:02;;;;;;;8.60;4.10;;;;;;;8.90;40.66;101781.65;104729;1256;63610;-51
2023/05/09 03:32:29;;;;;;;7.20;3.80;;;;;;;8.91;40.81;101780.16;105371;1254;66013;-53
2023/05/09 03:34:56;;;;;;;10.10;4.80;;;;;;;8.93;41.09;101782.71;104799;1256;61701;-52
2023/05/09 03:37:24;;;;;;;6.00;1.70;;;;;;;8.96;41.03;101783.66;104901;1256;60450;-51
2023/05/09 03:39:53;;;;;;;6.90;3.60;;;;;;;8.97;40.68;101784.80;104831;1254;67136;-52
2023/05/09 03:42:21;;;;;;;8.00;4.20;;;;;;;9.01;40.21;101787.23;106736;1253;62931;-53
2023/05/09 03:44:48;;;;;;;8.80;4.00;;;;;;;9.06;39.79;101788.55;108811;1253;66124;-55
2023/05/09 03:47:16;;;;;;;10.00;3.90;;;;;;;9.11;39.54;101790.40;105838;1256;60513;-54
2023/05/09 03:49:43;;;;;;;7.60;4.00;;;;;;;9.17;39.56;101790.08;104570;1257;60533;-51
2023/05/09 03:52:10;;;;;;;7.90;4.10;;;;;;;9.23;39.60;101789.63;105027;1255;67635;-52
2023/05/09 03:54:37;;;;;;;9.80;3.90;;;;;;;9.22;39.31;101790.67;105230;1253;63571;-53
2023/05/09 03:57:04;;;;;;;9.40;4.30;;;;;;;9.26;39.04;101794.19;108722;1253;66758;-52
2023/05/09 03:59:31;;;;;;;9.10;1.80;;;;;;;9.31;38.89;101797.61;108844;1253;58494;-52
2023/05/09 04:01:58;;;;;;;10.10;4.30;;;;;;;9.36;38.85;101802.23;108981;1253;58912;-52
2023/05/09 04:04:26;;;;;;;10.60;4.90;;;;;;;9.40;38.58;101798.33;108824;1255;67296;-52
2023/05/09 04:06:54;;;;;;;7.60;4.10;;;;;;;9.44;38.62;101800.40;107338;1259;63599;-52
2023/05/09 04:09:21;;;;;;;6.40;3.60;;;;;;;9.50;38.46;101802.74;106563;1260;68399;-50
2023/05/09 04:11:48;;;;;;;8.60;4.40;;;;;;;9.55;38.24;101804.20;104790;1256;60360;-54
2023/05/09 04:14:15;;;;;;;7.20;4.10;;;;;;;9.62;38.68;101806.13;104749;1258;60599;-51
2023/05/09 04:16:42;;;;;;;11.10;3.80;;;;;;;9.68;38.64;101807.56;105058;1259;66172;-52
2023/05/09 04:19:09;;;;;;;11.30;4.10;;;;;;;9.73;39.06;101808.66;105301;1254;63748;-52
2023/05/09 04:21:36;;;;;;;10.50;4.70;;;;;;;9.77;38.62;101811.11;105210;1260;66158;-52
2023/05/09 04:24:04;;;;;;;9.10;4.30;;;;;;;9.77;38.45;101813.39;106608;1254;60622;-52
2023/05/09 04:26:37;;;;;;;6.90;3.90;;;;;;;9.76;38.31;101814.99;108161;1257;58238;-52
2023/05/09 04:29:06;;;;;;;7.80;3.90;;;;;;;9.76;38.33;101816.41;107966;1259;67466;-53
2023/05/09 04:31:33;;;;;;;8.40;4.40;;;;;;;9.76;38.86;101817.98;105281;1257;62822;-52
2023/05/09 04:34:02;;;;;;;6.50;3.90;;;;;;;9.76;38.94;101816.42;107300;1254;65874;-52
2023/05/09 04:36:32;;;;;;;8.20;4.60;;;;;;;9.76;38.66;101819.73;105330;1259;60658;-52
2023/05/09 04:38:59;;;;;;;7.40;4.40;;;;;;;9.77;38.69;101817.95;106714;1254;60473;-54
2023/05/09 04:41:28;;;;;;;8.60;4.00;;;;;;;9.78;39.08;101821.39;105740;1254;67330;-52
2023/05/09 04:43:55;;;;;;;12.50;4.60;;;;;;;9.80;39.01;101823.90;105182;1261;63523;-52
2023/05/09 04:46:23;;;;;;;9.50;4.20;;;;;;;9.82;38.97;101827.63;108225;1253;66171;-53
2023/05/09 04:48:51;;;;;;;8.30;4.00;;;;;;;9.85;38.84;101826.25;106004;1259;61598;-52
2023/05/09 04:51:19;;;;;;;6.90;4.20;;;;;;;9.86;38.63;101828.48;106226;1253;60537;-52
2023/05/09 04:53:46;;;;;;;7.90;3.90;;;;;;;9.85;38.40;101827.13;105312;1259;66118;-53
2023/05/09 04:56:14;;;;;;;6.60;3.70;;;;;;;9.83;38.12;101827.23;105265;1262;63308;-51
2023/05/09 04:58:41;;;;;;;6.30;3.50;;;;;;;9.83;38.38;101832.17;105243;1259;66237;-52
2023/05/09 05:01:09;;;;;;;7.30;3.80;;;;;;;9.85;38.38;101829.61;105374;1259;60674;-52
2023/05/09 05:03:37;;;;;;;7.40;3.80;;;;;;;9.91;38.71;101833.67;105324;1257;62271;-53
2023/05/09 05:06:05;;;;;;;7.30;3.70;;;;;;;9.98;38.94;101833.61;105253;1254;68152;-53
2023/05/09 05:08:32;;;;;;;7.20;3.90;;;;;;;10.05;38.79;101834.84;104960;1263;62822;-51
2023/05/09 05:10:59;;;;;;;8.20;3.50;;;;;;;10.09;38.91;101836.91;105017;1254;66492;-52
2023/05/09 05:13:27;;;;;;;7.90;3.90;;;;;;;10.16;38.89;101835.48;105512;1257;61209;-52
2023/05/09 05:15:57;;;;;;;7.20;3.50;;;;;;;10.25;38.92;101831.64;105060;1257;60568;-53
2023/05/09 05:18:24;;;;;;;7.60;4.30;;;;;;;10.33;38.80;101829.83;105231;1260;67192;-52
2023/05/09 05:20:52;;;;;;;8.60;4.10;;;;;;;10.42;38.85;101830.01;105218;1259;62802;-52
2023/05/09 05:23:19;;;;;;;7.80;3.50;;;;;;;10.53;38.56;101830.11;105162;1259;65861;-52
2023/05/09 05:25:50;;;;;;;6.50;3.60;;;;;;;10.63;37.98;101829.55;108902;1254;59114;-52
2023/05/09 05:28:17;;;;;;;5.70;3.40;;;;;;;10.72;37.32;101829.41;108928;1254;58367;-53
2023/05/09 05:30:45;;;;;;;6.50;3.50;;;;;;;10.79;37.23;101830.72;108832;1254;67199;-53
2023/05/09 05:33:11;;;;;;;7.20;3.60;;;;;;;10.87;37.33;101828.20;107851;1256;63947;-53
2023/05/09 05:35:39;;;;;;;7.40;3.00;;;;;;;10.89;36.77;101827.00;106375;1260;65920;-52
2023/05/09 05:38:06;;;;;;;6.60;3.20;;;;;;;10.87;36.62;101827.67;105197;1260;60302;-52
2023/05/09 05:40:33;;;;;;;9.20;4.00;;;;;;;10.86;36.97;101829.65;107272;1257;59527;-52
2023/05/09 05:43:02;;;;;;;8.10;3.60;;;;;;;10.90;37.41;101827.66;107427;1254;67517;-53
2023/05/09 05:45:29;;;;;;;6.20;3.40;;;;;;;10.96;37.46;101822.89;105330;1260;63441;-52
2023/05/09 05:47:57;;;;;;;7.60;3.30;;;;;;;11.04;37.47;101817.69;107425;1254;74616;-53
2023/05/09 05:50:24;;;;;;;10.10;3.80;;;;;;;11.12;37.59;101821.62;105464;1254;60561;-52
2023/05/09 05:52:52;;;;;;;7.00;3.20;;;;;;;11.18;37.14;101821.21;105734;1257;60326;-51
2023/05/09 05:55:19;;;;;;;8.80;4.00;;;;;;;11.25;37.00;101821.91;104858;1260;67355;-52
2023/05/09 05:57:46;;;;;;;7.30;3.30;;;;;;;11.27;37.05;101822.83;105045;1254;63818;-50
2023/05/09 06:00:15;;;;;;;7.50;3.50;;;;;;;11.28;37.35;101819.73;106012;1257;66249;-50
2023/05/09 06:02:52;;;;;;;6.90;3.40;;;;;;;11.35;37.65;101822.01;108973;1257;59386;-53
2023/05/09 06:05:33;;;;;;;7.40;3.00;;;;;;;11.41;37.16;101824.10;105430;1259;60338;-51
2023/05/09 06:08:00;;;;;;;7.80;3.00;;;;;;;11.44;37.66;101824.81;105080;1258;67299;-51
2023/05/09 06:10:27;;;;;;;8.30;3.30;;;;;;;11.48;37.48;101829.84;105871;1254;63487;-51
2023/05/09 06:12:54;;;;;;;8.40;3.20;;;;;;;11.52;37.42;101826.58;105223;1260;65233;-52
2023/05/09 06:15:21;;;;;;;5.70;2.80;;;;;;;11.57;36.92;101830.67;105009;1255;60482;-52
2023/05/09 06:17:48;;;;;;;7.70;3.60;;;;;;;11.61;36.80;101831.14;105445;1257;60367;-52
2023/05/09 06:20:15;;;;;;;7.00;3.10;;;;;;;11.66;37.16;101826.42;105228;1263;67813;-53
2023/05/09 06:22:42;;;;;;;8.50;3.20;;;;;;;11.73;37.62;101826.20;105217;1258;63860;-54
2023/05/09 06:25:09;;;;;;;5.40;2.80;;;;;;;11.81;37.45;101827.80;105790;1256;65889;-54
2023/05/09 06:27:37;;;;;;;5.60;2.90;;;;;;;11.88;36.42;101823.30;105681;1260;61368;-54
2023/05/09 06:30:05;;;;;;;5.70;2.70;;;;;;;11.91;35.76;101823.16;107317;1257;59498;-51
2023/05/09 06:32:51;;;;;;;7.90;2.90;;;;;;;11.94;35.76;101822.09;106090;1258;67027;-54
2023/05/09 06:35:18;;;;;;;8.60;2.90;;;;;;;12.01;35.91;101820.77;105274;1259;72932;-51
2023/05/09 06:37:45;;;;;;;6.80;3.40;;;;;;;12.07;36.00;101823.17;105255;1254;65737;-53
2023/05/09 06:40:15;;;;;;;7.90;3.40;;;;;;;12.13;35.99;101822.65;105116;1260;60619;-52
2023/05/09 06:42:42;;;;;;;6.40;3.20;;;;;;;12.17;35.93;101823.45;104945;1260;60392;-51
2023/05/09 06:45:09;;;;;;;7.40;3.40;;;;;;;12.21;35.89;101819.17;104681;1254;66238;-50
2023/05/09 06:47:36;;;;;;;7.20;2.90;;;;;;;12.24;35.91;101818.41;108895;1254;71093;-53
2023/05/09 06:50:03;;;;;;;10.20;3.20;;;;;;;12.29;35.49;101815.11;108909;1259;65158;-53
2023/05/09 06:52:30;;;;;;;6.90;2.80;;;;;;;12.35;35.48;101816.33;109014;1254;58744;-51
2023/05/09 06:54:57;;;;;;;5.60;2.60;;;;;;;12.42;35.47;101814.80;108972;1254;58280;-52
2023/05/09 06:57:24;;;;;;;6.40;3.00;;;;;;;12.52;35.24;101810.66;109022;1253;67468;-52
2023/05/09 06:59:51;;;;;;;5.60;2.20;;;;;;;12.66;35.49;101806.41;108846;1255;63030;-51
2023/05/09 07:02:18;;;;;;;7.20;2.30;;;;;;;12.81;35.13;101803.12;108968;1254;65474;-52
2023/05/09 07:04:45;;;;;;;6.90;2.30;;;;;;;12.95;34.18;101797.23;109005;1257;58484;-51
2023/05/09 07:07:12;;;;;;;5.10;2.60;;;;;;;13.09;34.47;101796.84;108958;1253;58450;-51
2023/05/09 07:09:39;;;;;;;7.40;2.30;;;;;;;13.19;34.16;101796.67;108944;1255;67634;-52
2023/05/09 07:12:06;;;;;;;8.50;2.70;;;;;;;13.26;33.41;101796.02;109028;1254;63694;-52
2023/05/09 07:14:33;;;;;;;5.10;2.00;;;;;;;13.31;33.38;101789.16;108992;1254;66199;-53
2023/05/09 07:17:00;;;;;;;5.10;2.20;;;;;;;13.38;33.11;101789.08;107336;1257;62881;-52
2023/05/09 07:19:46;;;;;;;6.10;2.20;;;;;;;13.46;33.40;101788.73;104958;1257;60536;-50
2023/05/09 07:22:13;;;;;;;5.50;2.10;;;;;;;13.53;32.22;101786.60;104943;1259;67245;-54
2023/05/09 07:24:40;;;;;;;5.80;2.20;;;;;;;13.57;31.83;101781.73;106224;1254;63828;-51
2023/05/09 07:27:07;;;;;;;5.80;2.30;;;;;;;13.59;31.85;101779.30;106115;1256;64936;-54
2023/05/09 07:29:34;;;;;;;5.50;1.70;;;;;;;13.64;32.21;101778.47;104868;1255;60365;-52
2023/05/09 07:32:01;;;;;;;8.90;2.10;;;;;;;13.73;31.40;101776.06;104756;1260;60450;-53
2023/05/09 07:34:28;;;;;;;4.40;1.80;;;;;;;13.82;30.56;101766.02;104840;1260;67284;-52
2023/05/09 07:36:57;;;;;;;5.20;1.90;;;;;;;13.90;30.07;101762.98;105097;1254;63763;-52
2023/05/09 07:39:24;;;;;;;4.50;1.90;;;;;;;13.95;30.10;101757.89;105825;1260;66211;-53
2023/05/09 07:41:51;;;;;;;4.20;1.50;;;;;;;14.02;30.36;101758.08;105304;1258;60326;-54
2023/05/09 07:44:18;;;;;;;7.00;1.60;;;;;;;14.08;30.08;101754.81;105276;1254;60500;-54
2023/05/09 07:46:45;;;;;;;4.60;2.00;;;;;;;14.11;30.19;101753.74;106867;1258;67649;-54
2023/05/09 07:49:12;;;;;;;5.20;1.70;;;;;;;14.14;30.27;101748.02;105581;1254;63463;-54
2023/05/09 07:51:40;;;;;;;8.00;2.00;;;;;;;14.20;30.27;101747.06;105301;1254;66897;-53
2023/05/09 07:54:08;;;;;;;7.50;1.80;;;;;;;14.26;30.25;101745.42;105424;1255;60434;-53
2023/05/09 07:56:36;;;;;;;6.30;1.90;;;;;;;14.32;29.70;101734.67;108981;1257;59685;-52
2023/05/09 07:59:03;;;;;;;4.80;1.90;;;;;;;14.41;29.71;101732.80;108108;1254;67477;-51
2023/05/09 08:01:29;;;;;;;6.80;1.60;;;;;;;14.49;28.82;101735.21;105261;1254;63875;-52
2023/05/09 08:03:56;;;;;;;4.00;1.70;;;;;;;14.52;27.54;101734.61;105064;1254;65252;-53
2023/05/09 08:06:25;;;;;;;5.70;2.10;;;;;;;14.53;27.43;101731.39;104785;1255;60634;-54
2023/05/09 08:08:52;;;;;;;4.20;1.80;;;;;;;14.55;27.65;101729.83;107459;1254;60559;-49
2023/05/09 08:11:18;;;;;;;4.50;1.50;;;;;;;14.55;27.37;101727.52;107255;1254;67323;-53
2023/05/09 08:13:47;;;;;;;4.50;1.60;;;;;;;14.51;25.97;101733.25;104993;1255;62849;-51
2023/05/09 08:16:16;;;;;;;5.10;2.10;;;;;;;14.49;26.30;101734.86;105751;1254;66083;-52
2023/05/09 08:18:43;;;;;;;4.10;1.60;;;;;;;14.51;26.83;101735.76;106058;1257;60551;-51
2023/05/09 08:21:10;;;;;;;6.50;2.10;;;;;;;14.56;27.31;101736.30;105094;1259;331710;-54
2023/05/09 08:36:13;;;;;;;4.50;1.80;;;;;;;15.02;26.24;101727.54;102691;1285;605245;-51
2023/05/09 08:38:40;;;;;;;9.40;1.90;;;;;;;15.67;25.93;101717.80;103704;1267;107691;-51
2023/05/09 08:41:07;;;;;;;4.80;1.70;;;;;;;15.74;25.61;101717.77;104551;1264;59270;-50
2023/05/09 08:43:34;;;;;;;4.10;1.60;;;;;;;15.71;24.61;101714.77;104599;1264;64617;-53
2023/05/09 08:46:04;;;;;;;5.70;2.30;;;;;;;15.66;24.14;101712.23;105238;1260;64135;-53
2023/05/09 08:48:33;;;;;;;5.80;2.00;;;;;;;15.60;25.04;101712.33;104524;1256;66146;-52
2023/05/09 08:51:03;;;;;;;5.90;1.90;;;;;;;15.63;25.62;101713.54;104646;1254;61631;-54
2023/05/09 08:53:30;;;;;;;5.40;1.80;;;;;;;15.69;25.30;101710.71;105365;1254;59401;-53
2023/05/09 08:55:59;;;;;;;4.00;1.70;;;;;;;15.71;25.08;101712.52;104645;1256;64530;-53
2023/05/09 08:58:26;;;;;;;3.20;1.30;;;;;;;15.76;25.22;101711.91;106223;1260;63000;-51
2023/05/09 09:00:54;;;;;;;4.50;1.40;;;;;;;15.81;25.05;101706.83;104680;1259;65842;-54
2023/05/09 09:03:22;;;;;;;8.20;1.60;;;;;;;15.82;24.41;101706.41;104678;1257;60816;-53
2023/05/09 09:05:49;;;;;;;7.00;1.90;;;;;;;15.76;24.27;101710.36;106578;1256;59669;-52
2023/05/09 09:08:16;;;;;;;7.60;2.00;;;;;;;15.72;24.51;101705.88;104728;1254;65573;-53
2023/05/09 09:10:46;;;;;;;4.30;1.50;;;;;;;15.69;24.36;101705.04;107445;1260;62724;-53
2023/05/09 09:13:14;;;;;;;4.20;1.70;;;;;;;15.75;25.15;101710.30;106685;1256;64987;-53
2023/05/09 09:15:42;;;;;;;3.80;1.40;;;;;;;15.83;24.32;101705.09;105731;1260;59662;-54
2023/05/09 09:18:23;;;;;;;3.70;1.50;;;;;;;15.92;25.13;101701.83;104923;1261;59736;-53
2023/05/09 09:20:58;;;;;;;5.30;1.80;;;;;;;16.03;24.78;101705.34;107676;1258;68398;-52
2023/05/09 09:23:26;;;;;;;5.50;1.70;;;;;;;16.08;24.10;101698.23;107051;1259;62737;-49
2023/05/09 09:26:00;;;;;;;4.50;1.60;;;;;;;16.06;23.97;101697.36;104458;1256;66316;-54
2023/05/09 09:28:27;;;;;;;5.00;1.50;;;;;;;16.05;23.85;101695.09;106158;1256;59578;-54
2023/05/09 09:30:54;;;;;;;5.50;1.50;;;;;;;16.12;24.11;101693.64;105378;1256;59748;-54
2023/05/09 09:33:22;;;;;;;6.70;1.60;;;;;;;16.14;23.73;101690.63;104667;1257;66507;-54
2023/05/09 09:35:50;;;;;;;3.80;1.60;;;;;;;16.11;24.15;101693.33;104589;1259;63677;-52
2023/05/09 09:38:18;;;;;;;6.60;1.60;;;;;;;16.08;24.34;101694.31;107286;1260;66409;-54
2023/05/09 09:40:54;;;;;;;6.80;2.10;;;;;;;16.05;24.18;101693.16;106581;1256;60210;-53
2023/05/09 09:43:28;;;;;;;5.10;1.80;;;;;;;16.05;24.10;101693.02;106377;1256;60531;-54
2023/05/09 09:45:56;;;;;;;4.30;1.80;;;;;;;16.05;24.35;101689.11;108758;1256;65113;-52
2023/05/09 09:48:25;;;;;;;5.00;1.60;;;;;;;16.04;24.14;101686.18;105332;1259;62697;-50
2023/05/09 09:50:55;;;;;;;6.60;2.10;;;;;;;16.03;24.42;101681.09;105573;1257;65252;-53
2023/05/09 09:53:24;;;;;;;5.80;1.80;;;;;;;16.03;24.00;101684.88;105578;1257;59707;-56
2023/05/09 09:55:52;;;;;;;5.00;1.90;;;;;;;16.05;24.57;101689.46;105579;1257;59671;-53
2023/05/09 09:58:23;;;;;;;5.80;1.80;;;;;;;16.04;25.03;101688.12;106452;1256;65711;-51
2023/05/09 10:01:10;;;;;;;3.90;1.80;;;;;;;16.09;24.83;101691.41;106343;1257;62748;-53
2023/05/09 10:03:38;;;;;;;6.40;1.80;;;;;;;16.17;24.08;101690.41;105136;1257;66033;-55
2023/05/09 10:06:10;;;;;;;4.40;1.50;;;;;;;16.26;24.00;101685.77;106778;1258;59637;-51
2023/05/09 10:08:38;;;;;;;4.50;2.10;;;;;;;16.35;23.91;101681.60;105100;1260;59608;-55
2023/05/09 10:11:06;;;;;;;5.70;2.00;;;;;;;16.38;24.02;101681.45;105374;1260;66529;-52
2023/05/09 10:13:37;;;;;;;4.80;1.90;;;;;;;16.38;24.58;101683.02;104736;1256;64338;-54
2023/05/09 10:16:04;;;;;;;4.30;1.70;;;;;;;16.41;24.06;101682.34;104617;1261;65038;-55
2023/05/09 10:18:31;;;;;;;7.70;2.00;;;;;;;16.44;23.41;101679.15;104715;1257;59760;-52
2023/05/09 10:21:00;;;;;;;5.00;1.70;;;;;;;16.44;23.72;101676.99;104585;1256;61195;-56
2023/05/09 10:23:31;;;;;;;6.60;2.10;;;;;;;16.46;23.57;101674.02;105697;1255;66686;-54
2023/05/09 10:26:20;;;;;;;6.20;2.00;;;;;;;16.50;23.63;101673.14;106548;1255;63993;-56
2023/05/09 10:28:48;;;;;;;4.20;2.00;;;;;;;16.58;23.40;101668.89;104760;1257;66423;-52
2023/05/09 10:31:22;;;;;;;4.30;1.90;;;;;;;16.61;23.74;101669.73;104666;1260;59655;-55
2023/05/09 10:33:49;;;;;;;3.50;1.40;;;;;;;16.65;24.52;101673.96;108799;1255;59778;-56
2023/05/09 10:36:19;;;;;;;4.90;1.70;;;;;;;16.76;24.04;101673.38;108774;1256;66414;-54
2023/05/09 10:38:47;;;;;;;5.80;1.90;;;;;;;16.86;23.88;101672.92;108729;1255;63586;-53
2023/05/09 10:41:17;;;;;;;4.70;1.60;;;;;;;16.94;23.44;101666.91;107403;1256;65012;-54
2023/05/09 10:43:44;;;;;;;5.10;1.70;;;;;;;17.00;24.10;101665.19;104462;1263;59734;-59
2023/05/09 10:46:12;;;;;;;4.80;1.80;;;;;;;17.07;24.12;101662.62;104632;1255;59960;-53
2023/05/09 10:48:39;;;;;;;4.70;1.80;;;;;;;17.22;23.57;101662.70;107565;1257;65417;-50
2023/05/09 10:51:06;;;;;;;6.00;1.90;;;;;;;17.30;23.53;101661.98;105243;1256;62840;-46
2023/05/09 10:53:55;;;;;;;7.00;2.00;;;;;;;17.35;23.34;101661.42;108657;1257;65127;-47
2023/05/09 10:56:21;;;;;;;6.30;2.10;;;;;;;17.35;23.24;101657.36;108686;1256;57638;-46
2023/05/09 10:58:48;;;;;;;3.60;1.40;;;;;;;17.35;23.30;101653.64;108735;1260;57992;-47
2023/05/09 11:01:26;;;;;;;4.30;1.70;;;;;;;17.43;23.32;101650.21;108679;1255;66529;-47
2023/05/09 11:03:54;;;;;;;4.20;1.70;;;;;;;17.57;23.28;101648.77;108727;1257;62972;-48
2023/05/09 11:06:44;;;;;;;5.70;2.30;;;;;;;17.74;23.02;101645.73;108766;1256;75253;-47
2023/05/09 11:09:27;;;;;;;6.30;2.20;;;;;;;17.84;23.03;101639.79;104573;1257;59623;-44
2023/05/09 11:12:15;;;;;;;4.70;1.40;;;;;;;17.89;21.95;101640.13;104625;1260;59831;-48
2023/05/09 11:14:47;;;;;;;4.50;1.70;;;;;;;17.79;21.78;101645.75;106624;1257;66466;-46
2023/05/09 11:17:27;;;;;;;4.50;1.90;;;;;;;17.66;22.04;101647.30;105129;1257;72192;-45
2023/05/09 11:20:05;;;;;;;4.90;1.50;;;;;;;17.56;22.57;101638.43;104776;1260;66202;-46
2023/05/09 11:22:40;;;;;;;4.00;1.60;;;;;;;17.49;23.01;101631.42;104544;1256;59780;-46
2023/05/09 11:25:15;;;;;;;5.00;1.70;;;;;;;17.43;22.47;101629.45;104630;1256;59877;-46
2023/05/09 11:27:48;;;;;;;10.00;2.10;;;;;;;17.36;23.06;101629.41;106648;1256;66534;-46
2023/05/09 11:30:16;;;;;;;4.70;2.00;;;;;;;17.31;23.58;101630.74;104640;1260;62872;-46
2023/05/09 11:32:57;;;;;;;7.00;1.90;;;;;;;17.29;23.26;101631.58;106044;1256;65119;-45
2023/05/09 11:35:27;;;;;;;10.70;2.40;;;;;;;17.21;22.57;101630.20;105489;1260;59603;-46
2023/05/09 11:37:58;;;;;;;4.00;1.80;;;;;;;17.09;23.31;101633.03;105092;1261;59641;-47
2023/05/09 11:40:26;;;;;;;7.70;2.10;;;;;;;16.99;23.38;101629.41;105844;1257;66213;-48